Time;durP1;ratioP1;P1;durP2;ratioP2;P2;SDS_P1;SDS_P2;PMS_P1;PMS_P2;Temp;Humidity;BMP_temperature;BMP_pressure;BME280_temperature;BME280_humidity;BME280_pressure;Samples;Min_cycle;Max_cycle;Signal;HPM_P1;HPM_P2
2023/01/14 00:01:42;;;;;;;34.37;6.00;;;7.20;99.90;;;;;;4961541;29;20222;-92
2023/01/14 00:07:04;;;;;;;27.53;6.13;;;7.10;99.90;;;;;;4968378;28;20208;-92
2023/01/14 00:09:32;;;;;;;31.47;6.47;;;7.10;99.90;;;;;;4968937;28;20201;-93
2023/01/14 00:12:02;;;;;;;27.00;5.93;;;7.10;99.90;;;;;;4965876;29;20232;-95
2023/01/14 00:14:32;;;;;;;32.23;6.63;;;7.00;99.90;;;;;;4969484;28;20249;-94
2023/01/14 00:17:03;;;;;;;36.10;5.53;;;7.00;99.90;;;;;;4971274;29;20194;-93
2023/01/14 00:19:30;;;;;;;33.07;6.07;;;7.00;99.90;;;;;;4971951;29;20465;-92
2023/01/14 00:21:59;;;;;;;37.37;5.80;;;7.10;99.90;;;;;;4960622;28;20183;-93
2023/01/14 00:24:38;;;;;;;25.33;4.87;;;7.10;99.90;;;;;;4973849;28;20202;-93
2023/01/14 00:27:06;;;;;;;31.43;5.07;;;7.20;99.90;;;;;;4979714;28;20193;-94
2023/01/14 00:29:35;;;;;;;21.90;4.83;;;7.00;99.90;;;;;;4979551;28;20193;-92
2023/01/14 00:32:05;;;;;;;26.93;4.57;;;7.00;99.90;;;;;;4979182;28;20193;-93
2023/01/14 00:34:36;;;;;;;25.57;5.13;;;7.00;99.90;;;;;;4979058;28;20206;-94
2023/01/14 00:37:15;;;;;;;31.63;5.27;;;6.90;99.90;;;;;;4979823;28;20265;-95
2023/01/14 00:39:42;;;;;;;25.07;5.13;;;7.00;99.90;;;;;;4971950;28;20201;-94
2023/01/14 00:42:10;;;;;;;25.23;4.93;;;7.10;99.90;;;;;;4965639;29;20305;-94
2023/01/14 00:44:39;;;;;;;27.23;5.23;;;6.90;99.90;;;;;;4964616;29;20212;-94
2023/01/14 00:47:07;;;;;;;27.20;4.33;;;7.00;99.90;;;;;;4963943;29;20625;-92
2023/01/14 00:49:35;;;;;;;24.83;4.10;;;7.20;99.90;;;;;;4964445;29;20214;-93
2023/01/14 00:52:06;;;;;;;26.13;4.73;;;7.10;99.90;;;;;;4965427;29;20234;-94
2023/01/14 00:54:33;;;;;;;24.33;5.20;;;7.10;99.90;;;;;;4947273;29;20225;-96
2023/01/14 00:57:03;;;;;;;26.47;5.03;;;7.10;99.90;;;;;;4963663;29;20241;-93
2023/01/14 00:59:33;;;;;;;18.47;4.00;;;7.00;99.90;;;;;;4961795;29;20229;-94
2023/01/14 01:02:01;;;;;;;26.27;4.77;;;7.00;99.90;;;;;;4962758;29;20209;-94
2023/01/14 01:04:28;;;;;;;21.03;4.53;;;7.00;99.90;;;;;;4960955;29;20297;-94
2023/01/14 01:06:57;;;;;;;23.70;4.53;;;7.10;99.90;;;;;;4961269;29;20284;-92
2023/01/14 01:09:26;;;;;;;29.97;4.70;;;7.00;99.90;;;;;;4959891;29;20302;-93
2023/01/14 01:11:56;;;;;;;25.77;4.47;;;7.10;99.90;;;;;;4959158;28;20221;-93
2023/01/14 01:14:25;;;;;;;25.53;4.70;;;7.10;99.90;;;;;;4958737;29;20230;-94
2023/01/14 01:16:53;;;;;;;23.30;5.17;;;7.10;99.90;;;;;;4958588;29;20253;-96
2023/01/14 01:19:20;;;;;;;23.80;4.20;;;7.10;99.90;;;;;;4957978;29;20210;-92
2023/01/14 01:21:49;;;;;;;25.33;4.17;;;7.00;99.90;;;;;;4959221;28;20209;-94
2023/01/14 01:24:16;;;;;;;19.37;4.40;;;7.00;99.90;;;;;;4962290;29;20230;-94
2023/01/14 01:26:47;;;;;;;20.43;5.53;;;7.10;99.90;;;;;;4963145;29;20210;-91
2023/01/14 01:29:17;;;;;;;24.87;5.00;;;7.10;99.90;;;;;;4964748;29;20213;-95
2023/01/14 01:31:44;;;;;;;20.70;4.23;;;7.10;99.90;;;;;;4964521;29;20657;-95
2023/01/14 01:34:11;;;;;;;15.13;4.23;;;7.20;99.90;;;;;;4963563;29;20573;-94
2023/01/14 01:36:38;;;;;;;14.00;3.50;;;7.10;99.90;;;;;;4963339;29;20252;-94
2023/01/14 01:39:07;;;;;;;24.57;3.87;;;7.10;99.90;;;;;;4963248;29;20201;-93
2023/01/14 01:41:34;;;;;;;18.57;3.70;;;7.10;99.90;;;;;;4962882;29;20281;-93
2023/01/14 01:44:35;;;;;;;24.43;4.23;;;7.20;99.90;;;;;;4961850;29;20253;-93
2023/01/14 01:47:07;;;;;;;22.00;4.40;;;7.10;99.90;;;;;;4960426;29;20204;-94
2023/01/14 01:49:38;;;;;;;23.23;4.37;;;7.10;99.90;;;;;;4961354;29;20210;-92
2023/01/14 01:52:12;;;;;;;21.47;4.83;;;7.20;99.90;;;;;;4960894;29;20561;-94
2023/01/14 01:54:50;;;;;;;25.70;4.03;;;7.20;99.90;;;;;;4960724;29;20205;-93
2023/01/14 01:57:18;;;;;;;24.23;4.53;;;7.20;99.90;;;;;;4944347;29;20220;-93
2023/01/14 01:59:49;;;;;;;20.50;3.87;;;7.20;99.90;;;;;;4959788;29;20217;-94
2023/01/14 02:02:21;;;;;;;19.07;4.27;;;7.30;99.90;;;;;;4959782;28;20257;-94
2023/01/14 02:04:48;;;;;;;19.80;4.20;;;7.20;99.90;;;;;;4959548;29;20297;-94
2023/01/14 02:07:20;;;;;;;18.70;4.33;;;7.30;99.90;;;;;;4960671;29;20354;-93
2023/01/14 02:09:49;;;;;;;21.67;4.50;;;7.40;99.90;;;;;;4960455;29;20300;-92
2023/01/14 02:12:38;;;;;;;20.60;3.83;;;7.40;99.90;;;;;;4960187;28;20398;-94
2023/01/14 02:15:17;;;;;;;25.20;4.50;;;7.30;99.90;;;;;;4960255;29;20565;-92
2023/01/14 02:18:03;;;;;;;23.57;4.00;;;7.30;99.90;;;;;;4960411;29;20209;-95
2023/01/14 02:20:39;;;;;;;20.43;3.83;;;7.30;99.90;;;;;;4961038;29;20210;-93
2023/01/14 02:23:46;;;;;;;21.70;4.07;;;7.40;99.90;;;;;;4960210;28;20222;-93
2023/01/14 02:26:51;;;;;;;22.10;4.43;;;7.30;99.90;;;;;;4936476;29;20213;-93
2023/01/14 02:29:51;;;;;;;18.73;4.40;;;7.20;99.90;;;;;;4960337;29;20605;-95
2023/01/14 02:32:30;;;;;;;17.97;3.83;;;7.20;99.90;;;;;;4966552;28;20217;-93
2023/01/14 02:35:06;;;;;;;19.43;4.00;;;7.20;99.90;;;;;;4969051;28;20323;-93
2023/01/14 02:37:42;;;;;;;14.10;3.23;;;7.20;99.90;;;;;;4960791;29;20205;-93
2023/01/14 02:40:13;;;;;;;25.47;3.90;;;7.10;99.90;;;;;;4960505;29;20292;-93
2023/01/14 02:45:43;;;;;;;24.93;3.63;;;7.20;99.90;;;;;;4959872;29;20205;-95
2023/01/14 02:48:18;;;;;;;19.20;3.83;;;7.20;99.90;;;;;;4959092;29;20201;-92
2023/01/14 02:50:47;;;;;;;20.37;4.70;;;7.20;99.90;;;;;;4959673;29;20232;-93
2023/01/14 02:53:19;;;;;;;16.93;3.83;;;7.20;99.90;;;;;;4943171;29;20230;-94
2023/01/14 02:55:48;;;;;;;19.33;4.07;;;7.20;99.90;;;;;;4960912;29;20233;-92
2023/01/14 02:58:48;;;;;;;24.10;4.37;;;7.20;99.90;;;;;;4968467;29;20190;-93
2023/01/14 03:01:32;;;;;;;33.83;5.20;;;7.20;99.90;;;;;;4971640;29;20297;-93
2023/01/14 03:04:19;;;;;;;23.30;3.90;;;7.20;99.90;;;;;;4974778;28;20230;-94
2023/01/14 03:07:06;;;;;;;15.50;3.40;;;7.20;99.90;;;;;;4977635;29;20202;-93
2023/01/14 03:09:41;;;;;;;20.80;4.23;;;7.30;99.90;;;;;;4977693;29;20210;-92
2023/01/14 03:12:16;;;;;;;20.13;4.17;;;7.30;99.90;;;;;;4976878;28;20214;-96
2023/01/14 03:14:48;;;;;;;18.87;4.10;;;7.30;99.90;;;;;;4965088;29;20225;-93
2023/01/14 03:17:24;;;;;;;26.15;5.28;;;7.30;99.90;;;;;;4960065;29;20450;-93
2023/01/14 03:20:01;;;;;;;20.97;3.87;;;7.30;99.90;;;;;;4959054;29;20213;-92
2023/01/14 03:22:34;;;;;;;22.63;4.53;;;7.50;99.90;;;;;;4959209;28;20205;-94
2023/01/14 03:25:03;;;;;;;23.77;4.73;;;7.40;99.90;;;;;;4959124;29;20297;-92
2023/01/14 03:27:35;;;;;;;22.47;4.23;;;7.40;99.90;;;;;;4958739;29;20261;-93
2023/01/14 03:30:09;;;;;;;20.50;4.77;;;7.40;99.90;;;;;;4958944;29;20255;-93
2023/01/14 03:32:41;;;;;;;17.03;3.97;;;7.40;99.90;;;;;;4958378;28;20742;-92
2023/01/14 03:35:12;;;;;;;18.77;4.00;;;7.40;99.90;;;;;;4958337;29;20277;-93
2023/01/14 03:37:42;;;;;;;30.43;5.00;;;7.30;99.90;;;;;;4958509;29;20258;-93
2023/01/14 03:40:13;;;;;;;17.67;3.70;;;7.30;99.90;;;;;;4958305;29;20247;-91
2023/01/14 03:42:46;;;;;;;17.03;3.80;;;7.40;99.90;;;;;;4958339;28;20336;-94
2023/01/14 03:45:19;;;;;;;22.00;4.10;;;7.30;99.90;;;;;;4958760;28;20218;-93
2023/01/14 03:47:47;;;;;;;16.90;3.80;;;7.30;99.90;;;;;;4958253;29;20297;-93
2023/01/14 03:50:23;;;;;;;19.83;4.20;;;7.30;99.90;;;;;;4942001;29;20615;-93
2023/01/14 03:53:04;;;;;;;29.43;4.20;;;7.40;99.90;;;;;;4958812;28;20231;-93
2023/01/14 03:55:41;;;;;;;16.50;3.53;;;7.50;99.90;;;;;;4958632;29;20245;-94
2023/01/14 03:58:14;;;;;;;15.87;3.50;;;7.60;99.90;;;;;;4960250;29;20217;-93
2023/01/14 04:00:49;;;;;;;19.67;4.80;;;7.50;99.90;;;;;;4958010;29;20657;-95
2023/01/14 04:03:17;;;;;;;27.23;4.30;;;7.50;99.90;;;;;;4958286;28;20225;-94
2023/01/14 04:05:46;;;;;;;17.43;3.73;;;7.50;99.90;;;;;;4958842;29;20634;-94
2023/01/14 04:08:13;;;;;;;25.13;4.10;;;7.50;99.90;;;;;;4958792;29;20241;-93
2023/01/14 04:10:40;;;;;;;20.40;3.87;;;7.50;99.90;;;;;;4958502;29;20236;-93
2023/01/14 04:15:53;;;;;;;14.77;3.93;;;7.60;99.90;;;;;;4958448;29;20236;-93
2023/01/14 04:18:21;;;;;;;17.70;3.47;;;7.60;99.90;;;;;;4958151;29;20257;-93
2023/01/14 04:20:49;;;;;;;16.30;3.70;;;7.60;99.90;;;;;;4957991;29;20239;-93
2023/01/14 04:23:18;;;;;;;19.17;4.43;;;7.80;99.90;;;;;;4958671;28;20285;-92
2023/01/14 04:25:46;;;;;;;21.67;4.07;;;7.70;99.90;;;;;;4959457;29;20289;-93
2023/01/14 04:28:13;;;;;;;20.70;3.57;;;7.60;99.90;;;;;;4960700;29;20210;-92
2023/01/14 04:30:41;;;;;;;20.07;3.03;;;7.70;99.90;;;;;;4960027;29;20216;-94
2023/01/14 04:33:08;;;;;;;19.70;4.07;;;7.70;99.90;;;;;;4958383;28;20257;-92
2023/01/14 04:35:37;;;;;;;16.30;3.53;;;7.80;99.90;;;;;;4957788;29;20289;-93
2023/01/14 04:38:05;;;;;;;17.27;3.33;;;7.90;99.90;;;;;;4957518;29;20263;-92
2023/01/14 04:40:33;;;;;;;18.47;3.67;;;7.80;99.90;;;;;;4958154;29;20233;-93
2023/01/14 04:42:59;;;;;;;18.23;3.70;;;7.80;99.90;;;;;;4959029;28;20249;-92
2023/01/14 04:45:27;;;;;;;20.90;4.07;;;7.90;99.90;;;;;;4958638;29;20225;-93
2023/01/14 04:47:55;;;;;;;22.70;3.90;;;7.70;99.90;;;;;;4958420;29;20237;-92
2023/01/14 04:50:44;;;;;;;20.57;4.17;;;7.80;99.90;;;;;;4960000;29;20297;-95
2023/01/14 04:53:17;;;;;;;16.60;3.43;;;7.90;99.90;;;;;;4957355;28;20329;-95
2023/01/14 04:55:46;;;;;;;20.73;4.63;;;7.80;99.90;;;;;;4957310;29;20264;-93
2023/01/14 04:58:15;;;;;;;13.63;3.27;;;7.90;99.90;;;;;;4960420;28;20216;-92
2023/01/14 05:00:43;;;;;;;14.33;3.40;;;7.90;99.90;;;;;;4964030;29;20229;-93
2023/01/14 05:03:12;;;;;;;12.03;3.40;;;7.90;99.90;;;;;;4966054;28;20249;-94
2023/01/14 05:05:40;;;;;;;18.43;4.80;;;7.90;99.90;;;;;;4967673;29;20732;-92
2023/01/14 05:08:10;;;;;;;15.73;3.90;;;7.90;99.90;;;;;;4968104;29;20256;-93
2023/01/14 05:10:41;;;;;;;13.17;3.07;;;7.80;99.90;;;;;;4968683;29;20206;-94
2023/01/14 05:13:09;;;;;;;15.47;3.53;;;7.80;99.90;;;;;;4974985;28;20257;-94
2023/01/14 05:15:41;;;;;;;11.67;3.43;;;7.80;99.90;;;;;;4974698;29;20206;-93
2023/01/14 05:18:17;;;;;;;13.57;3.50;;;7.80;99.90;;;;;;4974684;29;20245;-94
2023/01/14 05:20:46;;;;;;;17.90;4.00;;;7.80;99.90;;;;;;4974713;29;20229;-93
2023/01/14 05:23:28;;;;;;;18.07;4.00;;;7.80;99.90;;;;;;4974820;28;20269;-92
2023/01/14 05:26:19;;;;;;;15.33;3.37;;;7.70;99.90;;;;;;4975645;29;20273;-93
2023/01/14 05:28:48;;;;;;;23.33;4.33;;;7.60;99.90;;;;;;4972846;29;20233;-92
2023/01/14 05:31:16;;;;;;;19.37;3.77;;;7.60;99.90;;;;;;4964982;29;20216;-93
2023/01/14 05:33:45;;;;;;;14.57;3.87;;;7.60;99.90;;;;;;4963735;28;20300;-93
2023/01/14 05:50:38;;;;;;;17.10;3.40;;;7.50;99.90;;;;;;5104214;28;20237;-91
2023/01/14 05:53:20;;;;;;;15.50;3.10;;;7.40;99.90;;;;;;5097426;28;20221;-93
2023/01/14 05:55:56;;;;;;;16.07;3.10;;;7.40;99.90;;;;;;5097596;28;20215;-93
2023/01/14 05:58:25;;;;;;;19.63;3.70;;;7.40;99.90;;;;;;5099250;28;20229;-93
2023/01/14 06:06:50;;;;;;;12.33;3.33;;;7.50;99.90;;;;;;5099834;28;20675;-94
2023/01/14 06:12:03;;;;;;;11.17;3.20;;;7.50;99.90;;;;;;5097534;28;20197;-92
2023/01/14 06:14:31;;;;;;;14.27;3.87;;;7.50;99.90;;;;;;5097165;28;20205;-92
2023/01/14 06:17:04;;;;;;;12.57;3.00;;;7.70;99.90;;;;;;5098887;28;20201;-93
2023/01/14 06:19:48;;;;;;;13.63;3.50;;;7.70;99.90;;;;;;5104705;28;20257;-92
2023/01/14 06:25:24;;;;;;;10.07;3.43;;;7.70;99.90;;;;;;5106178;28;20213;-93
2023/01/14 06:27:57;;;;;;;10.73;3.27;;;7.70;99.90;;;;;;5114893;28;20242;-91
2023/01/14 06:30:26;;;;;;;10.80;3.70;;;7.70;99.90;;;;;;5107350;28;20193;-91
2023/01/14 06:32:55;;;;;;;16.77;4.23;;;7.80;99.90;;;;;;5107328;28;20213;-93
2023/01/14 06:35:23;;;;;;;12.57;4.10;;;7.80;99.90;;;;;;5100651;28;20630;-94
2023/01/14 06:37:55;;;;;;;12.30;3.00;;;8.00;99.90;;;;;;5111316;28;20276;-95
2023/01/14 06:40:24;;;;;;;14.17;3.80;;;7.90;99.90;;;;;;5100189;28;20178;-92
2023/01/14 06:42:57;;;;;;;12.47;3.80;;;7.90;99.90;;;;;;5101076;28;20227;-94
2023/01/14 06:45:25;;;;;;;9.17;3.83;;;7.90;99.90;;;;;;5102041;28;20224;-94
2023/01/14 06:50:40;;;;;;;18.87;4.00;;;8.00;99.90;;;;;;5085750;28;20205;-95
2023/01/14 06:53:13;;;;;;;6.43;3.37;;;8.10;99.90;;;;;;5074478;28;20213;-92
2023/01/14 07:06:54;;;;;;;12.33;3.67;;;8.20;99.90;;;;;;5090839;28;20205;-93
2023/01/14 07:12:51;;;;;;;9.53;3.30;;;8.40;99.90;;;;;;5090489;28;20261;-96
2023/01/14 07:15:29;;;;;;;7.63;3.00;;;8.40;99.90;;;;;;5093833;28;20212;-93
2023/01/14 07:23:21;;;;;;;11.33;3.30;;;8.50;99.90;;;;;;5089101;28;20220;-93
2023/01/14 07:25:55;;;;;;;9.00;3.10;;;8.60;99.90;;;;;;5080049;28;20205;-94
2023/01/14 07:28:33;;;;;;;11.30;2.83;;;8.60;99.90;;;;;;5103309;28;20231;-93
2023/01/14 07:31:13;;;;;;;14.40;2.97;;;8.80;99.90;;;;;;5097224;28;20194;-93
2023/01/14 07:36:36;;;;;;;12.20;3.23;;;8.90;99.90;;;;;;5093733;28;20202;-92
2023/01/14 07:41:50;;;;;;;9.37;2.17;;;8.90;99.90;;;;;;5098813;28;20212;-94
2023/01/14 07:45:01;;;;;;;12.27;2.90;;;8.90;99.90;;;;;;5082383;28;20228;-94
2023/01/14 08:12:10;;;;;;;8.70;2.53;;;9.00;99.90;;;;;;5096880;28;20220;-93
2023/01/14 08:14:41;;;;;;;5.83;1.97;;;9.00;99.90;;;;;;5099588;28;20186;-94
2023/01/14 08:29:50;;;;;;;14.67;2.60;;;9.10;99.90;;;;;;5078128;28;20182;-94
2023/01/14 08:38:31;;;;;;;11.43;2.77;;;9.20;99.90;;;;;;5077382;28;20222;-93
2023/01/14 08:48:48;;;;;;;11.83;2.80;;;9.30;99.90;;;;;;5058687;28;20456;-92
2023/01/14 08:54:43;;;;;;;12.57;2.47;;;9.30;99.90;;;;;;5076389;28;20213;-93
2023/01/14 09:00:16;;;;;;;11.10;3.13;;;9.30;99.90;;;;;;5073096;28;20214;-93
2023/01/14 09:22:21;;;;;;;4.20;1.60;;;9.50;99.90;;;;;;5054824;28;20298;-92
2023/01/14 09:25:18;;;;;;;6.97;2.00;;;9.50;99.90;;;;;;5041326;28;20207;-94
2023/01/14 09:36:58;;;;;;;5.07;1.90;;;9.60;99.90;;;;;;5029276;28;20211;-94
2023/01/14 09:39:35;;;;;;;5.63;2.63;;;9.60;99.90;;;;;;5025333;28;20289;-94
2023/01/14 11:41:47;;;;;;;2.27;0.90;;;10.30;99.90;;;;;;5090230;28;20202;-95
2023/01/14 11:53:48;;;;;;;2.47;1.03;;;10.40;99.90;;;;;;5064677;28;21055;-94
2023/01/14 11:56:40;;;;;;;1.37;0.90;;;10.40;99.90;;;;;;5068572;28;20210;-95
2023/01/14 11:59:29;;;;;;;2.47;1.30;;;10.50;99.90;;;;;;5047833;28;20293;-95
2023/01/14 12:02:06;;;;;;;2.47;1.37;;;10.50;99.90;;;;;;5048006;28;20203;-94
2023/01/14 12:04:57;;;;;;;5.00;1.27;;;10.50;99.90;;;;;;5060768;28;20228;-94
2023/01/14 12:07:30;;;;;;;3.30;1.07;;;10.70;99.90;;;;;;5064323;28;20202;-94
2023/01/14 12:18:39;;;;;;;2.80;1.23;;;10.80;99.90;;;;;;5061176;28;20234;-94
2023/01/14 12:21:29;;;;;;;4.50;1.30;;;10.90;99.90;;;;;;5063722;28;20201;-94
2023/01/14 12:24:01;;;;;;;5.30;1.37;;;10.90;99.90;;;;;;5066677;28;20226;-95
2023/01/14 12:26:48;;;;;;;1.37;1.20;;;11.00;99.90;;;;;;5064981;28;20230;-95
2023/01/14 12:29:21;;;;;;;2.50;1.20;;;11.00;99.90;;;;;;5064052;28;20199;-94
2023/01/14 12:32:04;;;;;;;1.47;1.27;;;11.10;99.90;;;;;;5073592;28;20299;-95
2023/01/14 12:34:40;;;;;;;3.63;0.97;;;11.10;99.90;;;;;;5064910;28;20233;-96
2023/01/14 12:37:12;;;;;;;4.67;1.80;;;11.00;99.90;;;;;;5052107;28;20280;-95
2023/01/14 12:45:45;;;;;;;3.03;1.20;;;11.00;99.90;;;;;;5056345;28;20208;-94
2023/01/14 12:48:31;;;;;;;3.37;1.43;;;11.10;99.90;;;;;;5055684;28;20211;-94
2023/01/14 12:51:07;;;;;;;3.20;1.10;;;11.00;99.90;;;;;;5063071;28;20210;-93
2023/01/14 12:53:38;;;;;;;4.53;1.47;;;10.90;99.90;;;;;;5061169;28;20292;-94
2023/01/14 12:56:08;;;;;;;4.07;1.30;;;10.90;99.90;;;;;;5060760;28;20199;-95
2023/01/14 12:58:40;;;;;;;3.67;1.37;;;11.00;99.90;;;;;;5059952;28;20241;-93
2023/01/14 13:04:26;;;;;;;1.77;1.27;;;11.10;99.90;;;;;;5070441;28;20274;-93
2023/01/14 13:07:16;;;;;;;2.97;1.17;;;11.00;99.90;;;;;;5070441;28;20192;-96
2023/01/14 13:22:04;;;;;;;4.73;1.20;;;11.00;99.90;;;;;;5072010;28;20178;-94
2023/01/14 13:25:20;;;;;;;2.27;1.30;;;11.00;99.90;;;;;;5076853;28;20237;-94
2023/01/14 13:27:55;;;;;;;1.63;1.30;;;11.10;99.90;;;;;;5075914;28;20191;-94
2023/01/14 13:31:14;;;;;;;2.17;1.20;;;11.00;99.90;;;;;;5072482;28;20226;-96
2023/01/14 13:33:42;;;;;;;4.13;1.37;;;11.10;99.90;;;;;;5019245;28;20292;-96
2023/01/14 13:36:19;;;;;;;1.20;1.03;;;11.10;99.90;;;;;;5024979;28;20201;-93
2023/01/14 13:42:02;;;;;;;1.70;1.23;;;11.20;99.90;;;;;;5063847;28;20223;-93
2023/01/14 13:47:30;;;;;;;5.27;1.60;;;11.20;99.90;;;;;;5048102;28;20208;-94
2023/01/14 13:50:05;;;;;;;2.67;0.93;;;11.20;99.90;;;;;;5064240;28;20226;-95
2023/01/14 13:52:43;;;;;;;2.97;1.17;;;11.30;99.90;;;;;;5072473;28;20232;-95
2023/01/14 13:55:20;;;;;;;3.93;1.53;;;11.30;99.90;;;;;;5074562;28;20211;-92
2023/01/14 13:57:52;;;;;;;1.47;0.80;;;11.30;99.90;;;;;;5072646;28;20180;-94
2023/01/14 14:00:44;;;;;;;3.33;1.50;;;11.40;99.90;;;;;;5076629;28;20239;-96
2023/01/14 14:03:38;;;;;;;0.93;0.93;;;11.30;99.90;;;;;;5077359;28;20228;-92
2023/01/14 14:06:50;;;;;;;2.33;1.33;;;11.40;99.90;;;;;;5079066;28;20220;-95
2023/01/14 14:09:31;;;;;;;1.10;1.10;;;11.40;99.90;;;;;;5076750;28;20199;-94
2023/01/14 14:14:03;;;;;;;2.47;1.40;;;11.40;99.90;;;;;;5065077;28;20268;-95
2023/01/14 14:15:14;;;;;;;0.97;0.97;;;11.40;99.90;;;;;;5076232;28;20267;-94
2023/01/14 14:17:44;;;;;;;2.40;1.07;;;11.50;99.90;;;;;;5063333;28;20204;-96
2023/01/14 14:20:17;;;;;;;2.13;1.20;;;11.40;99.90;;;;;;5074651;28;20300;-94
2023/01/14 14:22:52;;;;;;;2.00;1.40;;;11.50;99.90;;;;;;5064818;28;20236;-94
2023/01/14 14:25:22;;;;;;;1.00;1.00;;;11.40;99.90;;;;;;5071349;28;20222;-94
2023/01/14 14:27:52;;;;;;;1.40;1.20;;;11.50;99.90;;;;;;5074501;28;20206;-94
2023/01/14 14:30:28;;;;;;;1.40;1.20;;;11.50;99.90;;;;;;5074341;28;20204;-95
2023/01/14 14:32:55;;;;;;;1.10;1.00;;;11.50;99.90;;;;;;5074581;28;20224;-95
2023/01/14 14:35:25;;;;;;;2.10;1.20;;;11.50;99.90;;;;;;5075507;28;20289;-94
2023/01/14 14:37:54;;;;;;;1.20;1.00;;;11.50;99.90;;;;;;5074306;28;20220;-92
2023/01/14 14:40:27;;;;;;;1.60;1.10;;;11.50;99.90;;;;;;5060035;28;20248;-95
2023/01/14 14:42:54;;;;;;;1.10;1.00;;;11.50;99.90;;;;;;5072933;28;20566;-94
2023/01/14 14:45:29;;;;;;;1.20;1.10;;;11.60;99.90;;;;;;5071343;28;20202;-95
2023/01/14 14:47:58;;;;;;;2.07;1.10;;;11.60;99.90;;;;;;5071964;28;20589;-94
2023/01/14 14:50:38;;;;;;;1.93;1.10;;;11.60;99.90;;;;;;5074057;28;20213;-96
2023/01/14 14:53:05;;;;;;;1.40;1.30;;;11.60;99.90;;;;;;5074610;28;20282;-95
2023/01/14 14:55:48;;;;;;;1.20;1.10;;;11.60;99.90;;;;;;5074567;28;20204;-94
2023/01/14 14:58:19;;;;;;;1.50;1.40;;;11.60;99.90;;;;;;5074536;28;20205;-96
2023/01/14 15:01:00;;;;;;;2.23;1.00;;;11.60;99.90;;;;;;5075799;28;20247;-95
2023/01/14 15:03:36;;;;;;;1.13;1.13;;;11.60;99.90;;;;;;5073502;28;20634;-95
2023/01/14 15:06:10;;;;;;;1.13;0.90;;;11.60;99.90;;;;;;5064632;28;20213;-95
2023/01/14 15:11:26;;;;;;;0.90;0.90;;;11.80;99.90;;;;;;5044934;28;20201;-96
2023/01/14 15:13:55;;;;;;;1.40;0.90;;;11.70;99.90;;;;;;5059647;28;20243;-93
2023/01/14 15:37:27;;;;;;;4.93;1.00;;;11.80;99.90;;;;;;5197482;27;20176;-81
2023/01/14 15:40:09;;;;;;;1.17;1.07;;;11.70;99.90;;;;;;5197163;27;20431;-81
2023/01/14 15:43:23;;;;;;;0.80;0.80;;;11.80;99.90;;;;;;5183210;22;20475;-83
2023/01/14 15:48:59;;;;;;;1.00;0.80;;;11.90;99.90;;;;;;5151211;27;20202;-87
2023/01/14 15:51:58;;;;;;;1.13;0.90;;;11.80;99.90;;;;;;5142506;28;20199;-83
2023/01/14 15:54:40;;;;;;;0.77;0.77;;;11.80;99.90;;;;;;5128055;27;20685;-82
2023/01/14 15:57:27;;;;;;;1.00;1.00;;;11.80;99.90;;;;;;5129510;28;20710;-82
2023/01/14 16:00:15;;;;;;;1.37;0.90;;;11.90;99.90;;;;;;5130103;28;20209;-85
2023/01/14 16:02:42;;;;;;;1.07;0.70;;;11.90;99.90;;;;;;5111475;28;20219;-82
2023/01/14 16:05:33;;;;;;;1.70;0.90;;;11.90;99.90;;;;;;5110840;28;20257;-81
2023/01/14 16:08:19;;;;;;;1.52;1.25;;;11.90;99.90;;;;;;5130091;28;20420;-85
2023/01/14 16:10:46;;;;;;;2.47;1.10;;;11.90;99.90;;;;;;5130023;28;20195;-82
2023/01/14 16:16:52;;;;;;;1.07;1.00;;;12.00;99.90;;;;;;5114589;27;20304;-86
2023/01/14 16:19:37;;;;;;;0.90;0.90;;;12.00;99.90;;;;;;5090561;28;20215;-89
2023/01/14 16:22:04;;;;;;;1.70;1.00;;;12.00;99.90;;;;;;5104347;28;20243;-88
2023/01/14 16:24:52;;;;;;;0.93;0.83;;;12.00;99.90;;;;;;5105189;28;20222;-86
2023/01/14 16:27:55;;;;;;;1.20;1.03;;;12.00;99.90;;;;;;5107121;28;20199;-90
2023/01/14 16:30:22;;;;;;;0.97;0.97;;;12.00;99.90;;;;;;5086639;28;20216;-88
2023/01/14 16:32:50;;;;;;;2.70;1.10;;;12.00;99.90;;;;;;5079160;28;20208;-90
2023/01/14 16:35:19;;;;;;;1.93;1.10;;;12.00;99.90;;;;;;5088145;28;20557;-82
2023/01/14 16:37:47;;;;;;;1.17;1.08;;;12.00;99.90;;;;;;5084727;28;20432;-90
2023/01/14 16:40:20;;;;;;;1.37;1.27;;;12.10;99.90;;;;;;5084194;28;20660;-88
2023/01/14 16:42:53;;;;;;;1.87;1.17;;;12.10;99.90;;;;;;5081804;28;20663;-89
2023/01/14 16:45:21;;;;;;;1.30;1.20;;;12.10;99.90;;;;;;5091247;28;20551;-88
2023/01/14 16:47:48;;;;;;;1.07;1.00;;;12.10;99.90;;;;;;5096349;28;20207;-83
2023/01/14 16:50:17;;;;;;;1.63;1.03;;;12.20;99.90;;;;;;5087834;28;20203;-86
2023/01/14 16:52:47;;;;;;;0.87;0.87;;;12.20;99.90;;;;;;5085142;28;20200;-88
2023/01/14 16:55:22;;;;;;;0.70;0.70;;;12.20;99.90;;;;;;5084672;28;20205;-88
2023/01/14 16:57:55;;;;;;;0.83;0.83;;;12.20;99.90;;;;;;5089657;28;20223;-89
2023/01/14 17:00:23;;;;;;;0.77;0.77;;;12.20;99.90;;;;;;5085810;28;20215;-87
2023/01/14 17:02:52;;;;;;;1.23;0.90;;;12.20;99.90;;;;;;5082573;28;20208;-87
2023/01/14 17:05:28;;;;;;;0.90;0.90;;;12.20;99.90;;;;;;5096686;28;20208;-83
2023/01/14 17:08:09;;;;;;;1.20;1.10;;;12.20;99.90;;;;;;5095657;28;20913;-86
2023/01/14 17:10:40;;;;;;;1.07;1.07;;;12.20;99.90;;;;;;5104076;28;20296;-81
2023/01/14 17:13:07;;;;;;;1.07;0.97;;;12.30;99.90;;;;;;5077919;28;20246;-88
2023/01/14 17:15:34;;;;;;;3.00;1.20;;;12.20;99.90;;;;;;5079116;28;20232;-83
2023/01/14 17:18:07;;;;;;;1.20;1.07;;;12.30;99.90;;;;;;5082607;28;20224;-88
2023/01/14 17:20:35;;;;;;;1.17;0.93;;;12.20;99.90;;;;;;5081907;28;20675;-84
2023/01/14 17:23:15;;;;;;;0.60;0.60;;;12.30;99.90;;;;;;5091093;28;20206;-79
2023/01/14 17:25:42;;;;;;;2.00;0.93;;;12.20;99.90;;;;;;5093576;28;20210;-80
2023/01/14 17:28:30;;;;;;;1.57;1.10;;;12.30;99.90;;;;;;5090172;28;20686;-77
2023/01/14 17:30:56;;;;;;;2.73;0.90;;;12.30;99.90;;;;;;5110509;28;20191;-80
2023/01/14 17:33:57;;;;;;;1.27;1.00;;;12.20;99.90;;;;;;5105734;28;20200;-89
2023/01/14 17:36:25;;;;;;;1.20;1.10;;;12.30;99.90;;;;;;5088525;28;20222;-90
2023/01/14 17:42:15;;;;;;;1.00;1.00;;;12.30;99.90;;;;;;5103277;28;20202;-79
2023/01/14 17:44:45;;;;;;;0.80;0.80;;;12.20;99.90;;;;;;5114390;28;20214;-84
2023/01/14 17:47:23;;;;;;;1.53;0.80;;;12.20;99.90;;;;;;5117548;28;20209;-80
2023/01/14 17:50:03;;;;;;;1.10;1.10;;;12.30;99.90;;;;;;5117381;28;20256;-86
2023/01/14 17:52:42;;;;;;;1.13;1.13;;;12.20;99.90;;;;;;5070537;28;20256;-80
2023/01/14 17:55:34;;;;;;;1.03;0.90;;;12.20;99.90;;;;;;5095946;28;20196;-81
2023/01/14 17:58:01;;;;;;;1.63;1.40;;;12.20;99.90;;;;;;5097712;28;20232;-86
2023/01/14 18:00:34;;;;;;;2.17;1.23;;;12.20;99.90;;;;;;5115140;28;20199;-81
2023/01/14 18:03:49;;;;;;;1.20;1.10;;;12.10;99.90;;;;;;5114268;28;20192;-80
2023/01/14 18:06:18;;;;;;;2.63;1.43;;;12.10;99.90;;;;;;5119426;28;20271;-82
2023/01/14 18:09:06;;;;;;;3.10;1.10;;;12.10;99.90;;;;;;5091617;28;20205;-86
2023/01/14 18:12:09;;;;;;;2.67;1.50;;;12.00;99.90;;;;;;5097600;28;20191;-80
2023/01/14 18:15:28;;;;;;;5.23;2.00;;;12.00;99.90;;;;;;5097591;28;20185;-85
2023/01/14 18:21:34;;;;;;;7.30;1.70;;;12.00;99.90;;;;;;5104584;28;20196;-80
2023/01/14 18:24:42;;;;;;;8.17;2.20;;;12.00;99.90;;;;;;5094587;28;20204;-81
2023/01/14 18:27:36;;;;;;;4.97;1.80;;;11.90;99.90;;;;;;5096921;28;20292;-80
2023/01/14 18:30:24;;;;;;;5.53;1.83;;;11.80;99.90;;;;;;5098784;28;20200;-80
2023/01/14 18:36:15;;;;;;;6.97;2.83;;;11.70;99.90;;;;;;5097792;28;20191;-79
2023/01/14 18:39:29;;;;;;;8.57;2.00;;;11.70;99.90;;;;;;5098082;28;20230;-81
2023/01/14 19:18:53;;;;;;;6.27;2.00;;;11.20;99.90;;;;;;5052707;28;20231;-93
2023/01/14 19:21:23;;;;;;;11.03;2.83;;;11.10;99.90;;;;;;5052479;28;20311;-94
2023/01/14 19:24:14;;;;;;;11.20;2.27;;;11.10;99.90;;;;;;5054054;28;20266;-95
2023/01/14 19:26:44;;;;;;;7.97;2.13;;;11.10;99.90;;;;;;5040875;28;20219;-95
2023/01/14 19:29:17;;;;;;;11.73;2.03;;;11.10;99.90;;;;;;5045908;28;20261;-94
2023/01/14 19:31:50;;;;;;;7.07;1.90;;;11.10;99.90;;;;;;5054666;28;20684;-93
2023/01/14 19:34:20;;;;;;;7.13;2.20;;;11.10;99.90;;;;;;5060553;28;20318;-93
2023/01/14 19:36:48;;;;;;;7.20;2.10;;;11.10;99.90;;;;;;5062876;28;20239;-93
2023/01/14 19:39:16;;;;;;;7.90;2.60;;;11.10;99.90;;;;;;5059273;28;20465;-92
2023/01/14 19:41:43;;;;;;;10.50;2.40;;;11.20;99.90;;;;;;5059469;28;20207;-93
2023/01/14 19:44:12;;;;;;;6.80;2.33;;;11.20;99.90;;;;;;5039858;28;20247;-91
2023/01/14 19:46:39;;;;;;;10.13;2.60;;;11.20;99.90;;;;;;5046087;28;20215;-92
2023/01/14 19:49:09;;;;;;;6.47;1.93;;;11.10;99.90;;;;;;5054099;28;20547;-95
2023/01/14 19:51:41;;;;;;;10.60;2.13;;;11.20;99.90;;;;;;5053692;28;20254;-91
2023/01/14 19:54:12;;;;;;;7.17;2.20;;;11.10;99.90;;;;;;5046647;28;20232;-94
2023/01/14 19:56:40;;;;;;;4.40;1.60;;;11.10;99.90;;;;;;5035018;28;20302;-92
2023/01/14 19:59:09;;;;;;;8.73;2.00;;;11.10;99.90;;;;;;5054395;28;20305;-92
2023/01/14 20:01:42;;;;;;;8.87;1.90;;;11.00;99.90;;;;;;5039673;28;20212;-93